Time;durP1;ratioP1;P1;durP2;ratioP2;P2;SDS_P1;SDS_P2;PMS_P1;PMS_P2;Temp;Humidity;BMP_temperature;BMP_pressure;BME280_temperature;BME280_humidity;BME280_pressure;Samples;Min_cycle;Max_cycle;Signal;HPM_P1;HPM_P2
2022/06/14 00:02:25;;;;;;;7.80;2.33;;;10.20;99.90;;;;;;5069338;28;20471;-71
2022/06/14 00:04:50;;;;;;;5.47;1.65;;;10.30;99.90;;;;;;5090567;28;20115;-71
2022/06/14 00:07:16;;;;;;;8.85;2.40;;;10.20;99.90;;;;;;5080070;28;20373;-69
2022/06/14 00:09:42;;;;;;;15.88;2.47;;;10.20;99.90;;;;;;5075682;28;20454;-69
2022/06/14 00:12:07;;;;;;;7.50;1.63;;;10.10;99.90;;;;;;5076860;28;20037;-70
2022/06/14 00:14:33;;;;;;;7.25;2.00;;;10.10;99.90;;;;;;5059713;28;20101;-69
2022/06/14 00:16:59;;;;;;;6.88;1.80;;;10.20;99.90;;;;;;5072655;28;20048;-69
2022/06/14 00:19:24;;;;;;;8.07;2.03;;;10.20;99.90;;;;;;5075499;28;20445;-69
2022/06/14 00:21:50;;;;;;;10.93;3.78;;;10.20;99.90;;;;;;5075345;28;20095;-69
2022/06/14 00:24:15;;;;;;;11.70;3.33;;;10.20;99.90;;;;;;5081883;28;20032;-69
2022/06/14 00:26:41;;;;;;;7.13;3.22;;;10.20;99.90;;;;;;5075018;28;20097;-69
2022/06/14 00:29:06;;;;;;;8.05;1.70;;;10.20;99.90;;;;;;5071331;28;20099;-69
2022/06/14 00:31:32;;;;;;;4.55;1.90;;;10.10;99.90;;;;;;5075102;28;20048;-69
2022/06/14 00:33:58;;;;;;;9.80;2.08;;;10.10;99.90;;;;;;5065619;28;20474;-69
2022/06/14 00:36:30;;;;;;;10.25;2.53;;;10.10;99.90;;;;;;5076713;28;20118;-69
2022/06/14 00:38:59;;;;;;;6.80;2.13;;;10.10;99.90;;;;;;5059894;28;20124;-69
2022/06/14 00:41:32;;;;;;;5.57;2.08;;;10.10;99.90;;;;;;5058690;28;20082;-68
2022/06/14 00:43:57;;;;;;;5.13;2.17;;;10.10;99.90;;;;;;5042413;28;20469;-69
2022/06/14 00:46:28;;;;;;;6.50;3.05;;;10.00;99.90;;;;;;5076609;28;20059;-69
2022/06/14 00:49:01;;;;;;;7.68;2.15;;;10.00;99.90;;;;;;5060219;28;20072;-69
2022/06/14 00:51:30;;;;;;;6.07;2.08;;;10.00;99.90;;;;;;5058759;28;20141;-69
2022/06/14 00:54:14;;;;;;;5.53;1.90;;;10.00;99.90;;;;;;5076450;28;20090;-69
2022/06/14 00:56:49;;;;;;;7.90;2.55;;;9.90;99.90;;;;;;5058798;28;20061;-68
2022/06/14 00:59:23;;;;;;;4.88;2.38;;;9.90;99.90;;;;;;5058895;28;20059;-69
2022/06/14 01:01:55;;;;;;;8.40;2.58;;;9.90;99.90;;;;;;5059168;28;20053;-69
2022/06/14 01:04:25;;;;;;;4.57;1.83;;;9.80;99.90;;;;;;5075204;28;20471;-69
2022/06/14 01:06:56;;;;;;;5.68;1.90;;;9.80;99.90;;;;;;5058817;28;20403;-69
2022/06/14 01:09:32;;;;;;;5.13;1.85;;;9.80;99.90;;;;;;5076485;28;20071;-69
2022/06/14 01:12:06;;;;;;;13.25;3.10;;;9.80;99.90;;;;;;5075410;28;20142;-69
2022/06/14 01:15:13;;;;;;;4.30;1.88;;;9.70;99.90;;;;;;5057694;28;20055;-69
2022/06/14 01:17:43;;;;;;;5.43;2.30;;;9.70;99.90;;;;;;5057364;28;20138;-69
2022/06/14 01:20:11;;;;;;;7.57;2.15;;;9.80;99.90;;;;;;5057902;28;20106;-69
2022/06/14 01:22:38;;;;;;;4.50;2.35;;;9.70;99.90;;;;;;5058685;28;20056;-69
2022/06/14 01:25:04;;;;;;;10.70;2.30;;;9.80;99.90;;;;;;5058890;28;20052;-69
2022/06/14 01:27:32;;;;;;;4.95;2.42;;;9.80;99.90;;;;;;5075886;28;20135;-69
2022/06/14 01:30:04;;;;;;;9.73;2.38;;;9.80;99.90;;;;;;5058277;28;20058;-69
2022/06/14 01:32:34;;;;;;;9.93;2.67;;;9.90;99.90;;;;;;5057736;28;20045;-69
2022/06/14 01:35:04;;;;;;;5.53;2.25;;;9.90;99.90;;;;;;5057713;28;20487;-69
2022/06/14 01:37:31;;;;;;;5.63;1.77;;;9.90;99.90;;;;;;5075454;28;20136;-69
2022/06/14 01:39:58;;;;;;;8.65;2.53;;;9.90;99.90;;;;;;5058060;28;20079;-70
2022/06/14 01:42:32;;;;;;;5.25;1.90;;;9.80;99.90;;;;;;5075568;28;20047;-69
2022/06/14 01:45:35;;;;;;;6.97;2.08;;;9.80;99.90;;;;;;5057711;28;20120;-69
2022/06/14 01:48:16;;;;;;;7.75;2.22;;;9.70;99.90;;;;;;5019816;28;20036;-69
2022/06/14 01:53:58;;;;;;;12.57;2.40;;;9.60;99.90;;;;;;5057279;28;20368;-69
2022/06/14 01:56:51;;;;;;;5.25;2.42;;;9.60;99.90;;;;;;5057846;28;20128;-69
2022/06/14 01:59:29;;;;;;;10.63;2.85;;;9.50;99.90;;;;;;5075427;28;20143;-70
2022/06/14 02:02:15;;;;;;;9.45;2.55;;;9.50;99.90;;;;;;5074944;28;20456;-69
2022/06/14 02:05:02;;;;;;;11.75;2.63;;;9.50;99.90;;;;;;5074791;28;20044;-70
2022/06/14 02:07:53;;;;;;;7.72;2.22;;;9.40;99.90;;;;;;5058023;28;20125;-69
2022/06/14 02:10:59;;;;;;;5.75;2.10;;;9.40;99.90;;;;;;5057262;28;20419;-69
2022/06/14 02:13:38;;;;;;;6.20;2.25;;;9.40;99.90;;;;;;5057467;28;20058;-69
2022/06/14 02:16:11;;;;;;;8.02;2.83;;;9.40;99.90;;;;;;5075210;28;20044;-69
2022/06/14 02:18:45;;;;;;;8.07;2.47;;;9.40;99.90;;;;;;5074775;28;20070;-69
2022/06/14 02:21:13;;;;;;;7.95;2.97;;;9.30;99.90;;;;;;5068574;28;20054;-68
2022/06/14 02:23:55;;;;;;;7.63;2.92;;;9.30;99.90;;;;;;5078026;28;20470;-69
2022/06/14 02:26:28;;;;;;;9.10;2.78;;;9.30;99.90;;;;;;5061109;28;20149;-69
2022/06/14 02:29:02;;;;;;;6.38;2.08;;;9.30;99.90;;;;;;5077502;28;20073;-70
2022/06/14 02:31:42;;;;;;;10.32;2.40;;;9.20;99.90;;;;;;5077213;28;20130;-69
2022/06/14 02:34:13;;;;;;;7.60;2.30;;;9.20;99.90;;;;;;5077420;28;20040;-69
2022/06/14 02:36:42;;;;;;;7.93;2.88;;;9.20;99.90;;;;;;5063515;28;20063;-69
2022/06/14 02:39:22;;;;;;;8.13;2.55;;;9.10;99.90;;;;;;5077672;28;20087;-69
2022/06/14 02:42:09;;;;;;;4.32;2.05;;;9.20;99.90;;;;;;5076878;28;20372;-69
2022/06/14 02:44:48;;;;;;;5.47;2.08;;;9.20;99.90;;;;;;5094654;28;20063;-69
2022/06/14 02:47:22;;;;;;;9.75;2.75;;;9.20;99.90;;;;;;5094921;28;20052;-69
2022/06/14 02:50:06;;;;;;;5.75;2.40;;;9.20;99.90;;;;;;5076922;28;20067;-69
2022/06/14 02:53:18;;;;;;;6.18;2.08;;;9.10;99.90;;;;;;5073238;28;20049;-68
2022/06/14 02:55:51;;;;;;;11.02;2.60;;;9.20;99.90;;;;;;5055295;28;20373;-69
2022/06/14 02:58:16;;;;;;;6.83;2.80;;;9.20;99.90;;;;;;5056588;28;20088;-69
2022/06/14 03:00:48;;;;;;;7.80;3.47;;;9.20;99.90;;;;;;5056771;28;20087;-69
2022/06/14 03:03:33;;;;;;;6.70;2.65;;;9.20;99.90;;;;;;5074667;28;20101;-69
2022/06/14 03:06:12;;;;;;;8.68;2.63;;;9.20;99.90;;;;;;5068872;28;20127;-69
2022/06/14 03:09:05;;;;;;;6.55;2.42;;;9.20;99.90;;;;;;5076536;28;20048;-69
2022/06/14 03:11:54;;;;;;;7.75;2.72;;;9.20;99.90;;;;;;5094623;28;20058;-69
2022/06/14 03:14:39;;;;;;;8.20;2.50;;;9.30;99.90;;;;;;5077176;28;20044;-69
2022/06/14 03:17:25;;;;;;;6.28;2.75;;;9.20;99.90;;;;;;5076733;28;20148;-69
2022/06/14 03:20:21;;;;;;;6.75;2.33;;;9.30;99.90;;;;;;5072016;28;20334;-69
2022/06/14 03:23:21;;;;;;;6.65;2.88;;;9.30;99.90;;;;;;5074579;28;20063;-69
2022/06/14 03:26:25;;;;;;;8.05;2.22;;;9.30;99.90;;;;;;5074180;28;20057;-69
2022/06/14 03:29:13;;;;;;;7.72;2.95;;;9.30;99.90;;;;;;5076844;28;20044;-70
2022/06/14 03:31:49;;;;;;;8.45;3.17;;;9.40;99.90;;;;;;5060196;28;20048;-69
2022/06/14 03:34:19;;;;;;;8.30;2.40;;;9.40;99.90;;;;;;5060311;28;20071;-69
2022/06/14 03:36:45;;;;;;;8.50;2.55;;;9.50;99.90;;;;;;5078135;28;20128;-69
2022/06/14 03:39:22;;;;;;;6.35;2.45;;;9.40;99.90;;;;;;5077783;28;20091;-69
2022/06/14 03:41:52;;;;;;;7.78;2.33;;;9.50;99.90;;;;;;5060106;28;20044;-69
2022/06/14 03:44:20;;;;;;;7.20;2.83;;;9.60;99.90;;;;;;5060120;28;20076;-69
2022/06/14 03:47:07;;;;;;;8.23;2.60;;;9.60;99.90;;;;;;5077656;28;20377;-69
2022/06/14 03:49:33;;;;;;;11.82;3.25;;;9.60;99.90;;;;;;5077398;28;20052;-69
2022/06/14 03:52:26;;;;;;;8.88;2.65;;;9.70;99.90;;;;;;5060336;28;20037;-69
2022/06/14 03:55:11;;;;;;;10.98;2.78;;;9.70;99.90;;;;;;5077294;28;20071;-69
2022/06/14 03:58:10;;;;;;;8.52;2.28;;;9.70;99.90;;;;;;5087319;28;20055;-69
2022/06/14 04:00:51;;;;;;;8.25;2.85;;;9.70;99.90;;;;;;5101361;28;20048;-69
2022/06/14 04:03:19;;;;;;;5.45;2.72;;;9.80;99.90;;;;;;5085893;28;20116;-70
2022/06/14 04:06:13;;;;;;;6.20;1.90;;;9.80;99.90;;;;;;5075015;28;20040;-70
2022/06/14 04:09:15;;;;;;;6.82;2.00;;;9.80;99.90;;;;;;5031163;28;20133;-70
2022/06/14 04:12:12;;;;;;;9.93;2.38;;;9.90;99.90;;;;;;5059980;28;20057;-70
2022/06/14 04:15:06;;;;;;;8.43;3.15;;;10.00;99.90;;;;;;5059977;28;20067;-69
2022/06/14 04:17:41;;;;;;;4.95;2.30;;;10.00;99.90;;;;;;5077069;28;20056;-69
2022/06/14 04:20:35;;;;;;;7.68;3.00;;;10.10;99.90;;;;;;5079357;28;20094;-70
2022/06/14 04:23:26;;;;;;;5.97;3.05;;;10.20;99.90;;;;;;5079960;28;20044;-69
2022/06/14 04:26:27;;;;;;;5.00;2.20;;;10.30;99.90;;;;;;5080017;28;20153;-70
2022/06/14 04:29:00;;;;;;;9.45;3.55;;;10.40;99.90;;;;;;5061516;28;20049;-69
2022/06/14 04:31:36;;;;;;;5.57;2.57;;;10.50;99.90;;;;;;5067942;28;20036;-69
2022/06/14 04:34:17;;;;;;;7.30;2.00;;;10.60;99.90;;;;;;5076645;28;20089;-69
2022/06/14 04:36:57;;;;;;;9.00;2.90;;;10.80;99.90;;;;;;5059514;28;20063;-70
2022/06/14 04:39:41;;;;;;;11.95;4.72;;;10.90;99.90;;;;;;5058264;28;20051;-70
2022/06/14 04:42:17;;;;;;;7.28;2.67;;;11.00;99.90;;;;;;5076736;28;20048;-69
2022/06/14 04:45:18;;;;;;;6.28;3.08;;;11.10;99.90;;;;;;5059705;28;20369;-69
2022/06/14 04:47:50;;;;;;;8.20;2.75;;;11.20;99.90;;;;;;4979092;28;20051;-69
2022/06/14 04:50:19;;;;;;;5.68;2.78;;;11.40;99.90;;;;;;5045702;28;20143;-70
2022/06/14 04:52:51;;;;;;;5.28;2.22;;;11.50;99.90;;;;;;5076641;28;20053;-72
2022/06/14 04:55:29;;;;;;;5.65;2.45;;;11.60;99.90;;;;;;5075881;28;20052;-70
2022/06/14 04:58:04;;;;;;;8.20;2.72;;;11.80;99.90;;;;;;5076390;28;20052;-70
2022/06/14 05:00:35;;;;;;;5.10;2.20;;;11.90;99.90;;;;;;5076003;28;20044;-69
2022/06/14 05:03:06;;;;;;;8.98;3.33;;;12.10;99.90;;;;;;5058697;28;20040;-72
2022/06/14 05:05:45;;;;;;;7.00;2.75;;;12.20;99.90;;;;;;5060110;28;20048;-70
2022/06/14 05:08:42;;;;;;;21.45;4.68;;;12.30;99.90;;;;;;5076043;28;20060;-70
2022/06/14 05:11:16;;;;;;;5.82;2.20;;;12.50;99.90;;;;;;5058318;28;20048;-70
2022/06/14 05:14:06;;;;;;;6.35;2.65;;;12.80;99.90;;;;;;5058323;28;20044;-70
2022/06/14 05:16:52;;;;;;;9.93;2.53;;;13.70;99.90;;;;;;5058153;28;20048;-71
2022/06/14 05:19:34;;;;;;;7.25;2.45;;;14.90;99.90;;;;;;5058306;28;20455;-71
2022/06/14 05:22:29;;;;;;;5.57;2.45;;;16.00;99.90;;;;;;5075887;28;20456;-71
2022/06/14 05:24:54;;;;;;;5.05;2.15;;;17.30;99.90;;;;;;5041286;28;20040;-71
2022/06/14 05:27:38;;;;;;;5.95;2.20;;;18.10;99.90;;;;;;5058019;28;20036;-70
2022/06/14 05:30:28;;;;;;;6.70;2.17;;;18.20;99.90;;;;;;5057584;28;20102;-69
2022/06/14 05:33:00;;;;;;;13.23;2.97;;;18.60;99.90;;;;;;5083234;28;20041;-69
2022/06/14 05:35:48;;;;;;;11.25;2.00;;;19.10;99.90;;;;;;5058035;28;20110;-70
2022/06/14 05:38:45;;;;;;;5.30;2.13;;;20.10;99.90;;;;;;5060619;28;20536;-69
2022/06/14 05:41:51;;;;;;;6.03;2.17;;;21.00;99.90;;;;;;5074421;28;20047;-70
2022/06/14 05:44:31;;;;;;;6.88;2.47;;;22.10;99.90;;;;;;5094147;28;20044;-73
2022/06/14 05:47:07;;;;;;;7.57;1.98;;;22.60;99.90;;;;;;5043485;28;20045;-72
2022/06/14 05:49:38;;;;;;;6.28;2.00;;;22.90;99.40;;;;;;5057395;28;20044;-71
2022/06/14 05:52:28;;;;;;;4.57;1.90;;;23.30;98.80;;;;;;5072417;28;20530;-72
2022/06/14 05:55:10;;;;;;;6.60;1.52;;;23.60;97.40;;;;;;5057146;28;20389;-72
2022/06/14 05:57:47;;;;;;;4.22;1.73;;;23.90;97.30;;;;;;5051046;28;20052;-70
2022/06/14 06:00:21;;;;;;;7.30;2.35;;;24.50;96.40;;;;;;5072162;28;20076;-69
2022/06/14 06:02:55;;;;;;;5.03;1.40;;;24.80;95.30;;;;;;5054821;28;20056;-70
2022/06/14 06:05:27;;;;;;;3.72;1.25;;;24.60;93.60;;;;;;5037909;28;20053;-66
2022/06/14 06:07:56;;;;;;;6.25;1.20;;;25.00;94.90;;;;;;5037386;28;20052;-68
2022/06/14 06:10:29;;;;;;;6.85;1.73;;;25.00;92.70;;;;;;5035195;28;20470;-68
2022/06/14 06:13:00;;;;;;;;;;;25.20;92.40;;;;;;5057373;28;20384;-68
2022/06/14 06:15:49;;;;;;;4.22;1.30;;;25.50;92.80;;;;;;5058290;28;19944;-69
2022/06/14 06:18:24;;;;;;;3.38;1.02;;;25.90;92.40;;;;;;5050133;28;20057;-68
2022/06/14 06:21:03;;;;;;;3.83;1.08;;;25.90;91.20;;;;;;5056426;28;20036;-70
2022/06/14 06:23:42;;;;;;;5.07;1.50;;;25.60;90.10;;;;;;5056545;28;20111;-68
2022/06/14 06:26:10;;;;;;;3.53;1.20;;;25.40;91.90;;;;;;5073980;28;20041;-68
2022/06/14 06:28:43;;;;;;;6.82;1.17;;;25.60;92.00;;;;;;5054763;28;20203;-68
2022/06/14 06:31:16;;;;;;;4.30;1.42;;;25.40;91.10;;;;;;5056445;28;20052;-67
2022/06/14 06:33:43;;;;;;;;;;;25.60;91.30;;;;;;5056920;28;20067;-69
2022/06/14 06:36:30;;;;;;;4.93;1.50;;;25.70;91.80;;;;;;5074523;28;19916;-68
2022/06/14 06:39:20;;;;;;;3.92;1.83;;;25.70;90.80;;;;;;5074000;28;20040;-68
2022/06/14 06:41:50;;;;;;;2.78;1.42;;;26.00;90.30;;;;;;5039924;28;20051;-68
2022/06/14 06:44:39;;;;;;;3.10;0.98;;;26.30;91.20;;;;;;5045739;28;20102;-67
2022/06/14 06:47:23;;;;;;;5.10;1.58;;;26.10;90.30;;;;;;5036188;28;20051;-68
2022/06/14 06:50:08;;;;;;;4.03;1.20;;;26.10;88.10;;;;;;5036196;28;20107;-69
2022/06/14 06:52:40;;;;;;;4.78;1.45;;;26.10;88.00;;;;;;5036500;28;20069;-69
2022/06/14 06:55:25;;;;;;;4.53;0.98;;;25.90;90.20;;;;;;5049577;28;20477;-67
2022/06/14 06:57:53;;;;;;;8.30;1.00;;;26.10;88.80;;;;;;5057090;28;20480;-68
2022/06/14 07:00:20;;;;;;;2.47;1.05;;;26.10;86.40;;;;;;5083123;28;20380;-69
2022/06/14 07:02:53;;;;;;;2.42;0.80;;;26.30;88.30;;;;;;5058440;28;20342;-68
2022/06/14 07:05:19;;;;;;;6.82;1.77;;;26.60;89.40;;;;;;5060580;28;20350;-68
2022/06/14 07:07:47;;;;;;;4.40;1.25;;;26.00;88.70;;;;;;5091455;28;20042;-69
2022/06/14 07:10:19;;;;;;;3.30;0.98;;;26.30;87.90;;;;;;5060436;28;20047;-70
2022/06/14 07:13:03;;;;;;;5.50;1.60;;;26.40;88.50;;;;;;5060613;28;20103;-68
2022/06/14 07:15:55;;;;;;;3.35;1.10;;;25.90;84.70;;;;;;5064476;28;20044;-69
2022/06/14 07:18:25;;;;;;;6.00;1.30;;;26.40;86.80;;;;;;5077442;28;20075;-69
2022/06/14 07:21:12;;;;;;;5.38;1.13;;;26.40;86.10;;;;;;5076792;28;20032;-70
2022/06/14 07:23:51;;;;;;;4.63;1.88;;;25.60;83.30;;;;;;5077646;28;20051;-70
2022/06/14 07:26:32;;;;;;;4.13;1.52;;;24.40;85.60;;;;;;5059729;28;20069;-69
2022/06/14 07:29:16;;;;;;;4.75;1.40;;;23.40;87.10;;;;;;5060417;28;20036;-70
2022/06/14 07:32:12;;;;;;;5.55;1.58;;;24.20;88.60;;;;;;5089909;28;20357;-69
2022/06/14 07:34:39;;;;;;;4.20;0.88;;;25.10;89.90;;;;;;5097657;28;20175;-69
2022/06/14 07:37:25;;;;;;;2.85;0.70;;;25.00;84.30;;;;;;5076263;28;20044;-69
2022/06/14 07:40:17;;;;;;;5.82;1.58;;;23.90;85.30;;;;;;5043183;28;20041;-70
2022/06/14 07:42:52;;;;;;;4.20;1.20;;;23.00;88.70;;;;;;5094228;28;20368;-70
2022/06/14 07:45:21;;;;;;;3.75;0.80;;;23.10;90.90;;;;;;5065369;28;20092;-69
2022/06/14 07:48:00;;;;;;;4.05;0.85;;;24.10;89.20;;;;;;5089065;28;20044;-71
2022/06/14 07:51:01;;;;;;;7.25;0.82;;;24.80;88.00;;;;;;5077408;28;20036;-69
2022/06/14 07:53:36;;;;;;;4.60;1.42;;;25.50;88.30;;;;;;5015777;28;20119;-69
2022/06/14 07:56:11;;;;;;;5.75;1.73;;;25.40;87.60;;;;;;5094416;28;20044;-68
2022/06/14 07:58:47;;;;;;;4.57;1.20;;;24.80;87.80;;;;;;5071447;28;20037;-69
2022/06/14 08:01:18;;;;;;;4.40;0.90;;;24.90;85.60;;;;;;5059449;28;20044;-69
2022/06/14 08:04:06;;;;;;;4.63;1.08;;;24.60;85.50;;;;;;5077750;28;20048;-69
2022/06/14 08:06:41;;;;;;;2.90;0.75;;;24.00;84.40;;;;;;5097475;28;20036;-69
2022/06/14 08:09:40;;;;;;;3.78;0.90;;;23.30;87.50;;;;;;5097540;28;20055;-69
2022/06/14 08:12:20;;;;;;;3.28;0.88;;;24.20;87.90;;;;;;5051344;28;20044;-69
2022/06/14 08:15:05;;;;;;;4.68;0.90;;;25.20;84.70;;;;;;5088852;28;20036;-70
2022/06/14 08:17:50;;;;;;;2.95;1.30;;;25.60;85.50;;;;;;5065827;28;20453;-70
2022/06/14 08:20:28;;;;;;;2.40;1.05;;;25.30;80.70;;;;;;5055991;28;20072;-69
2022/06/14 08:22:58;;;;;;;1.98;0.95;;;24.80;83.00;;;;;;5059487;28;20044;-69
2022/06/14 08:25:33;;;;;;;3.45;0.85;;;24.20;82.30;;;;;;5061233;28;20043;-70
2022/06/14 08:28:09;;;;;;;3.30;0.98;;;24.00;84.20;;;;;;5059763;28;20098;-71
2022/06/14 08:30:43;;;;;;;2.17;0.80;;;24.70;82.40;;;;;;5076929;28;20415;-71
2022/06/14 08:33:31;;;;;;;5.63;1.50;;;25.30;81.70;;;;;;5059934;28;20052;-70
2022/06/14 08:36:23;;;;;;;3.13;1.10;;;24.80;81.20;;;;;;5076696;28;20084;-70
2022/06/14 08:38:52;;;;;;;2.58;0.90;;;24.40;83.10;;;;;;5051546;28;20139;-69
2022/06/14 08:41:36;;;;;;;4.05;0.75;;;24.50;83.00;;;;;;5058831;28;20040;-70
2022/06/14 08:44:23;;;;;;;3.55;1.08;;;25.20;82.60;;;;;;5076778;28;20036;-70
2022/06/14 08:47:10;;;;;;;3.03;0.70;;;25.40;81.30;;;;;;5076027;28;20460;-70
2022/06/14 08:49:54;;;;;;;2.88;0.93;;;25.40;81.20;;;;;;5058782;28;20047;-69
2022/06/14 08:52:42;;;;;;;3.00;1.02;;;25.60;84.00;;;;;;5076775;28;20445;-70
2022/06/14 08:55:42;;;;;;;4.22;0.85;;;25.60;81.90;;;;;;5058242;28;20062;-71
2022/06/14 08:58:13;;;;;;;3.38;0.90;;;24.80;80.40;;;;;;5058244;28;20387;-70
2022/06/14 09:00:48;;;;;;;1.90;0.70;;;24.00;84.60;;;;;;5076320;28;20413;-70
2022/06/14 09:03:36;;;;;;;3.03;0.60;;;23.50;83.10;;;;;;5058389;28;20448;-70
2022/06/14 09:06:21;;;;;;;2.10;0.82;;;23.20;85.00;;;;;;5058285;28;20032;-69
2022/06/14 09:09:16;;;;;;;2.33;1.00;;;22.60;83.60;;;;;;5076369;28;20051;-70
2022/06/14 09:12:15;;;;;;;4.53;1.30;;;22.30;84.40;;;;;;5058446;28;20041;-70
2022/06/14 09:15:17;;;;;;;3.58;0.90;;;21.90;85.70;;;;;;5058498;28;20326;-71
2022/06/14 09:18:01;;;;;;;5.47;1.23;;;22.60;88.80;;;;;;5059677;28;20506;-71
2022/06/14 09:20:40;;;;;;;2.60;0.93;;;23.20;85.30;;;;;;5077560;28;20302;-69
2022/06/14 09:23:29;;;;;;;5.35;1.00;;;22.70;85.00;;;;;;5095629;28;20419;-70
2022/06/14 09:26:07;;;;;;;1.65;0.80;;;22.40;86.40;;;;;;5094836;28;20036;-70
2022/06/14 09:28:57;;;;;;;2.90;1.15;;;22.40;87.00;;;;;;5095554;28;20066;-70
2022/06/14 09:31:39;;;;;;;1.15;0.60;;;22.20;86.60;;;;;;5073548;28;20055;-70
2022/06/14 09:34:17;;;;;;;4.38;1.00;;;22.00;86.60;;;;;;5075417;28;20338;-69
2022/06/14 09:37:04;;;;;;;4.47;1.52;;;21.80;89.20;;;;;;5075024;28;20131;-69
2022/06/14 09:39:54;;;;;;;4.45;1.10;;;21.80;89.40;;;;;;5095099;28;20044;-69
2022/06/14 09:42:45;;;;;;;3.03;1.30;;;21.80;87.80;;;;;;5077439;28;20058;-69
2022/06/14 09:45:30;;;;;;;3.38;1.13;;;21.80;88.90;;;;;;5077398;28;20491;-69
2022/06/14 09:48:18;;;;;;;6.25;1.13;;;22.30;90.50;;;;;;5074828;28;20098;-69
2022/06/14 09:50:55;;;;;;;3.92;0.95;;;22.50;90.30;;;;;;5057291;28;20040;-69
2022/06/14 09:53:36;;;;;;;3.65;1.10;;;23.00;89.70;;;;;;5074817;28;20044;-69
2022/06/14 09:56:13;;;;;;;2.72;1.10;;;23.10;86.00;;;;;;5074326;28;20052;-69
2022/06/14 09:59:00;;;;;;;2.47;0.90;;;22.60;84.80;;;;;;5073119;28;20044;-71
2022/06/14 10:01:39;;;;;;;5.50;1.08;;;22.10;86.40;;;;;;5059817;28;20040;-70
2022/06/14 10:04:47;;;;;;;3.78;0.98;;;21.80;85.60;;;;;;5071496;28;20048;-69
2022/06/14 10:07:46;;;;;;;2.13;1.23;;;21.60;86.30;;;;;;5027676;28;20052;-69
2022/06/14 10:10:53;;;;;;;3.92;1.10;;;21.80;87.80;;;;;;5056733;28;20044;-69
2022/06/14 10:13:33;;;;;;;3.00;0.90;;;22.20;86.80;;;;;;5040312;28;20051;-71
2022/06/14 10:16:24;;;;;;;4.35;0.95;;;22.50;87.40;;;;;;5063118;28;20059;-71
2022/06/14 10:19:17;;;;;;;3.00;1.17;;;22.80;85.50;;;;;;5094785;28;20036;-70
2022/06/14 10:22:14;;;;;;;1.45;0.75;;;22.50;86.30;;;;;;5076902;28;20040;-71
2022/06/14 10:24:48;;;;;;;2.60;0.68;;;22.30;86.20;;;;;;4974589;28;20059;-72
2022/06/14 10:28:12;;;;;;;12.02;1.08;;;21.90;85.30;;;;;;5076528;28;20165;-70
2022/06/14 10:31:01;;;;;;;3.97;0.93;;;21.50;85.30;;;;;;5072292;28;20469;-71
2022/06/14 10:33:44;;;;;;;2.65;0.80;;;21.30;89.00;;;;;;5073968;28;20054;-72
2022/06/14 10:36:12;;;;;;;3.70;0.90;;;21.50;89.10;;;;;;5056501;28;20036;-70
2022/06/14 10:39:04;;;;;;;1.05;0.65;;;21.50;88.20;;;;;;5055892;28;20048;-70
2022/06/14 10:42:10;;;;;;;4.28;1.00;;;21.50;89.80;;;;;;5073527;28;20032;-70
2022/06/14 10:45:33;;;;;;;4.50;0.70;;;21.60;89.90;;;;;;5056131;28;20130;-70
2022/06/14 10:48:17;;;;;;;2.90;1.02;;;21.80;90.70;;;;;;5012516;28;20038;-70
2022/06/14 10:50:55;;;;;;;4.95;1.35;;;21.80;88.90;;;;;;4996403;28;20120;-70
2022/06/14 10:53:58;;;;;;;2.60;0.93;;;21.70;87.90;;;;;;5044458;28;20052;-69
2022/06/14 10:56:59;;;;;;;3.63;1.10;;;21.90;90.90;;;;;;5063988;28;20376;-70
2022/06/14 10:59:45;;;;;;;2.67;1.00;;;22.10;89.30;;;;;;5076027;28;20048;-69
2022/06/14 11:02:32;;;;;;;3.20;1.05;;;22.00;88.00;;;;;;5077307;28;20330;-69
2022/06/14 11:05:30;;;;;;;4.13;1.38;;;21.50;88.30;;;;;;5073765;28;20098;-71
2022/06/14 11:08:13;;;;;;;3.38;0.98;;;21.20;88.00;;;;;;5056192;28;20041;-70
2022/06/14 11:10:56;;;;;;;3.53;1.10;;;21.10;88.30;;;;;;5073685;28;20037;-70
2022/06/14 11:13:48;;;;;;;;;;;20.90;90.60;;;;;;5040304;28;20052;-70
2022/06/14 11:16:19;;;;;;;3.20;1.23;;;20.70;90.80;;;;;;5080006;28;19923;-70
2022/06/14 11:19:37;;;;;;;2.38;0.88;;;20.90;91.10;;;;;;5076375;28;20040;-70
2022/06/14 11:22:13;;;;;;;1.48;0.70;;;21.30;91.40;;;;;;5075319;28;20091;-70
2022/06/14 11:24:47;;;;;;;3.60;1.10;;;21.80;90.40;;;;;;5075882;28;20044;-70
2022/06/14 11:27:34;;;;;;;3.45;1.30;;;21.70;89.90;;;;;;5093886;28;20038;-69
2022/06/14 11:30:08;;;;;;;2.78;0.90;;;21.80;88.90;;;;;;5073151;28;20109;-70
2022/06/14 11:32:48;;;;;;;2.92;0.70;;;21.70;89.30;;;;;;5039504;28;20048;-70
2022/06/14 11:35:35;;;;;;;2.67;0.98;;;21.60;89.10;;;;;;5073607;28;20028;-70
2022/06/14 11:38:25;;;;;;;3.22;1.10;;;21.70;88.30;;;;;;5055753;28;20469;-70
2022/06/14 11:40:57;;;;;;;2.08;1.08;;;21.70;90.60;;;;;;5055461;28;20049;-70
2022/06/14 11:43:45;;;;;;;1.08;0.70;;;21.80;90.70;;;;;;5039364;28;20072;-70
2022/06/14 11:46:47;;;;;;;4.35;1.02;;;21.90;90.70;;;;;;5082205;28;20048;-70
2022/06/14 11:49:15;;;;;;;4.38;1.27;;;22.10;90.10;;;;;;5077270;28;20460;-70
2022/06/14 11:51:44;;;;;;;3.85;1.20;;;22.00;87.90;;;;;;5062659;28;20051;-69
2022/06/14 11:54:15;;;;;;;7.80;0.90;;;22.10;88.50;;;;;;5097097;28;20048;-71
2022/06/14 11:57:22;;;;;;;3.20;0.80;;;22.20;89.80;;;;;;5079335;28;20060;-70
2022/06/14 12:00:09;;;;;;;2.75;1.10;;;22.50;90.70;;;;;;5096617;28;20395;-72
2022/06/14 12:03:05;;;;;;;1.85;0.70;;;22.50;87.70;;;;;;5097643;28;20079;-71
2022/06/14 12:05:41;;;;;;;3.97;1.50;;;22.50;87.60;;;;;;5097894;28;20035;-71
2022/06/14 12:08:23;;;;;;;3.70;1.40;;;22.50;86.80;;;;;;5076767;28;20047;-70
2022/06/14 12:11:21;;;;;;;2.85;1.02;;;22.80;87.80;;;;;;5059087;28;20048;-71
2022/06/14 12:14:12;;;;;;;2.90;0.90;;;23.10;85.80;;;;;;5068811;28;20048;-71
2022/06/14 12:16:46;;;;;;;1.77;0.90;;;23.30;85.30;;;;;;5059502;28;20409;-71
2022/06/14 12:19:33;;;;;;;2.13;0.93;;;23.50;86.30;;;;;;5059115;28;20106;-69
2022/06/14 12:22:34;;;;;;;2.83;1.15;;;23.60;85.70;;;;;;5059186;28;20049;-70
2022/06/14 12:28:04;;;;;;;2.58;0.93;;;24.10;86.20;;;;;;5059446;28;20053;-70
2022/06/14 12:30:33;;;;;;;2.05;1.02;;;23.70;85.10;;;;;;5076053;28;20438;-70
2022/06/14 12:33:15;;;;;;;1.75;0.73;;;22.90;86.40;;;;;;5058843;28;20040;-70
2022/06/14 12:35:56;;;;;;;4.97;1.20;;;22.80;88.70;;;;;;5059080;28;20037;-70
2022/06/14 12:38:28;;;;;;;2.50;1.08;;;22.90;88.90;;;;;;5062835;28;20050;-70
2022/06/14 12:41:09;;;;;;;5.23;1.27;;;22.80;87.50;;;;;;5079184;28;20425;-70
2022/06/14 12:44:02;;;;;;;3.40;1.40;;;23.20;87.40;;;;;;5078956;28;20052;-70
2022/06/14 12:46:36;;;;;;;2.88;1.05;;;22.90;87.40;;;;;;5096798;28;20472;-71
2022/06/14 12:49:04;;;;;;;4.35;1.77;;;22.70;87.40;;;;;;5079017;28;20056;-71
2022/06/14 12:51:47;;;;;;;4.00;1.10;;;22.60;87.90;;;;;;5062175;28;20056;-69
2022/06/14 12:54:32;;;;;;;2.65;0.93;;;22.70;88.30;;;;;;5067803;28;20053;-70
2022/06/14 12:57:25;;;;;;;3.17;0.90;;;22.50;87.40;;;;;;5055281;28;20444;-70
2022/06/14 13:00:03;;;;;;;4.43;2.10;;;22.60;87.40;;;;;;5038125;28;20124;-71
2022/06/14 13:02:56;;;;;;;4.57;0.90;;;22.80;87.60;;;;;;5038324;28;20048;-70
2022/06/14 13:05:40;;;;;;;4.32;1.17;;;22.40;86.50;;;;;;5038502;28;20037;-71
2022/06/14 13:08:11;;;;;;;4.70;1.00;;;22.00;89.10;;;;;;5039625;28;20044;-72
2022/06/14 13:11:12;;;;;;;2.05;0.77;;;22.20;89.60;;;;;;5076229;28;20044;-70
2022/06/14 13:14:14;;;;;;;2.67;1.05;;;22.40;88.70;;;;;;5041815;28;20044;-69
2022/06/14 13:17:20;;;;;;;2.70;1.20;;;22.40;89.50;;;;;;5058365;28;20421;-70
2022/06/14 13:19:54;;;;;;;3.95;1.40;;;22.40;90.20;;;;;;5075676;28;20140;-70
2022/06/14 13:22:23;;;;;;;9.55;1.48;;;22.60;89.20;;;;;;5058561;28;20048;-70
2022/06/14 13:25:22;;;;;;;3.05;0.85;;;22.60;88.70;;;;;;5058027;28;20453;-71
2022/06/14 13:28:05;;;;;;;5.90;1.67;;;22.50;89.20;;;;;;5058003;28;20058;-71
2022/06/14 13:30:50;;;;;;;;;;;22.40;90.30;;;;;;5058615;28;20334;-71
2022/06/14 13:33:38;;;;;;;2.90;1.10;;;22.50;90.50;;;;;;5057995;28;19924;-70
2022/06/14 13:36:28;;;;;;;2.50;0.73;;;22.30;87.60;;;;;;5055625;28;20048;-71
2022/06/14 13:39:10;;;;;;;1.77;0.80;;;22.30;90.20;;;;;;5037965;28;20051;-70
2022/06/14 13:42:01;;;;;;;2.15;0.73;;;22.80;91.10;;;;;;5037657;28;20509;-70
2022/06/14 13:44:31;;;;;;;3.30;1.00;;;23.30;88.60;;;;;;5060271;28;20052;-70
2022/06/14 13:47:01;;;;;;;3.10;0.73;;;23.20;85.70;;;;;;5075407;28;20373;-70
2022/06/14 13:49:33;;;;;;;4.05;0.90;;;23.20;86.40;;;;;;5075527;28;20044;-70
2022/06/14 13:52:04;;;;;;;4.40;1.02;;;23.10;86.30;;;;;;5058015;28;20071;-70
2022/06/14 13:54:57;;;;;;;1.52;0.77;;;23.20;88.80;;;;;;5065983;28;20048;-70
2022/06/14 13:57:28;;;;;;;1.85;0.80;;;23.60;88.90;;;;;;5061280;28;20052;-70
2022/06/14 14:00:00;;;;;;;3.72;1.00;;;23.90;87.10;;;;;;5073355;28;20052;-70
2022/06/14 14:02:52;;;;;;;4.43;1.30;;;23.70;86.00;;;;;;5057429;28;20362;-67
2022/06/14 14:05:58;;;;;;;4.68;1.52;;;23.40;88.90;;;;;;5058216;28;20056;-69
2022/06/14 14:08:39;;;;;;;4.80;0.95;;;23.40;84.60;;;;;;4995424;28;20464;-70
2022/06/14 14:11:10;;;;;;;5.00;1.15;;;23.20;87.40;;;;;;5075036;28;20037;-68